CGIST CYAT-CYFH
Flight info
| Callsign | CGIST |
|---|---|
| Flight time | 1h 25m |
| Altitude | 3500 |
| Route | DCT |
| Aircraft | C172/L-ACIO/L |
Departure
| Time | 2026-04-12 19:25 |
|---|---|
| Airport | Attawapiskat Airport (CYAT) |
Arrival
| Time | 2026-04-12 20:50 |
|---|---|
| Airport | Fort Hope Airport (CYFH) |
| Time | Latitude | Longitude | Altitude | Speed | Heading |
|---|---|---|---|---|---|
| 2026-04-12 19:20 | 52.92710 | -82.43004 | 32 ft | 0 kts | 126° |
| 2026-04-12 19:22 | 52.92706 | -82.42993 | 32 ft | 0 kts | 114° |
| 2026-04-12 19:23 | 52.92719 | -82.42920 | 32 ft | 10 kts | 359° |
| 2026-04-12 19:23 | 52.92723 | -82.42950 | 32 ft | 4 kts | 252° |
| 2026-04-12 19:24 | 52.92718 | -82.43015 | 32 ft | 11 kts | 269° |
| 2026-04-12 19:24 | 52.92728 | -82.43124 | 34 ft | 15 kts | 297° |
| 2026-04-12 19:24 | 52.92737 | -82.43267 | 33 ft | 4 kts | 223° |
| 2026-04-12 19:24 | 52.92539 | -82.43553 | 66 ft | 72 kts | 226° |
| 2026-04-12 19:25 | 52.92358 | -82.44363 | 493 ft | 83 kts | 244° |
| 2026-04-12 19:25 | 52.92103 | -82.45219 | 961 ft | 94 kts | 234° |
| 2026-04-12 19:25 | 52.91708 | -82.46277 | 1139 ft | 116 kts | 232° |
| 2026-04-12 19:25 | 52.91163 | -82.47387 | 1317 ft | 131 kts | 231° |
| 2026-04-12 19:26 | 52.90560 | -82.48582 | 1487 ft | 138 kts | 231° |
| 2026-04-12 19:26 | 52.89981 | -82.49863 | 1672 ft | 140 kts | 235° |
| 2026-04-12 19:26 | 52.89474 | -82.51262 | 1848 ft | 142 kts | 242° |
| 2026-04-12 19:26 | 52.89020 | -82.52703 | 2014 ft | 142 kts | 243° |
| 2026-04-12 19:27 | 52.88586 | -82.54170 | 2191 ft | 142 kts | 244° |
| 2026-04-12 19:27 | 52.88163 | -82.55652 | 2348 ft | 143 kts | 245° |
| 2026-04-12 19:27 | 52.87738 | -82.57166 | 2427 ft | 147 kts | 245° |
| 2026-04-12 19:27 | 52.87298 | -82.58747 | 2465 ft | 151 kts | 245° |
| 2026-04-12 19:28 | 52.86858 | -82.60331 | 2483 ft | 153 kts | 245° |
| 2026-04-12 19:28 | 52.86407 | -82.61955 | 2498 ft | 156 kts | 246° |
| 2026-04-12 19:28 | 52.85955 | -82.63594 | 2520 ft | 159 kts | 245° |
| 2026-04-12 19:28 | 52.85498 | -82.65246 | 2501 ft | 159 kts | 245° |
| 2026-04-12 19:29 | 52.85040 | -82.66901 | 2503 ft | 158 kts | 245° |
| 2026-04-12 19:29 | 52.84580 | -82.68564 | 2498 ft | 158 kts | 245° |
| 2026-04-12 19:29 | 52.84123 | -82.70221 | 2492 ft | 157 kts | 246° |
| 2026-04-12 19:29 | 52.83670 | -82.71863 | 2494 ft | 157 kts | 245° |
| 2026-04-12 19:30 | 52.83213 | -82.73518 | 2521 ft | 159 kts | 246° |
| 2026-04-12 19:30 | 52.82754 | -82.75183 | 2496 ft | 159 kts | 246° |
| 2026-04-12 19:30 | 52.82300 | -82.76842 | 2491 ft | 158 kts | 246° |
| 2026-04-12 19:30 | 52.81851 | -82.78476 | 2488 ft | 157 kts | 246° |
| 2026-04-12 19:31 | 52.81395 | -82.80131 | 2491 ft | 156 kts | 245° |
| 2026-04-12 19:31 | 52.80945 | -82.81763 | 2495 ft | 156 kts | 246° |
| 2026-04-12 19:31 | 52.80499 | -82.83389 | 2513 ft | 157 kts | 246° |
| 2026-04-12 19:31 | 52.80051 | -82.85023 | 2514 ft | 158 kts | 246° |
| 2026-04-12 19:32 | 52.79591 | -82.86690 | 2512 ft | 159 kts | 246° |
| 2026-04-12 19:32 | 52.79133 | -82.88361 | 2493 ft | 158 kts | 246° |
| 2026-04-12 19:32 | 52.78683 | -82.90001 | 2489 ft | 157 kts | 246° |
| 2026-04-12 19:32 | 52.78233 | -82.91640 | 2492 ft | 156 kts | 246° |
| 2026-04-12 19:33 | 52.77814 | -82.93304 | 2411 ft | 155 kts | 248° |
| 2026-04-12 19:33 | 52.77408 | -82.94915 | 2456 ft | 153 kts | 246° |
| 2026-04-12 19:33 | 52.77048 | -82.96575 | 2644 ft | 145 kts | 248° |
| 2026-04-12 19:33 | 52.76812 | -82.98183 | 2276 ft | 162 kts | 252° |
| 2026-04-12 19:34 | 52.76480 | -82.99920 | 2392 ft | 155 kts | 252° |
| 2026-04-12 19:34 | 52.76159 | -83.01588 | 2453 ft | 154 kts | 252° |
| 2026-04-12 19:34 | 52.75827 | -83.03284 | 2476 ft | 155 kts | 252° |
| 2026-04-12 19:34 | 52.75483 | -83.04999 | 2506 ft | 158 kts | 252° |
| 2026-04-12 19:35 | 52.75139 | -83.06722 | 2492 ft | 158 kts | 252° |
| 2026-04-12 19:35 | 52.74788 | -83.08441 | 2482 ft | 157 kts | 251° |
| 2026-04-12 19:35 | 52.74439 | -83.10125 | 2491 ft | 156 kts | 251° |
| 2026-04-12 19:35 | 52.74081 | -83.11823 | 2503 ft | 157 kts | 251° |
| 2026-04-12 19:36 | 52.73712 | -83.13536 | 2497 ft | 157 kts | 250° |
| 2026-04-12 19:36 | 52.73342 | -83.15225 | 2497 ft | 156 kts | 250° |
| 2026-04-12 19:36 | 52.72975 | -83.16917 | 2498 ft | 157 kts | 250° |
| 2026-04-12 19:36 | 52.72594 | -83.18606 | 2510 ft | 158 kts | 248° |
| 2026-04-12 19:37 | 52.72174 | -83.20262 | 2493 ft | 157 kts | 247° |
| 2026-04-12 19:37 | 52.71736 | -83.21927 | 2488 ft | 156 kts | 246° |
| 2026-04-12 19:37 | 52.71306 | -83.23554 | 2505 ft | 156 kts | 246° |
| 2026-04-12 19:37 | 52.70860 | -83.25205 | 2524 ft | 159 kts | 246° |
| 2026-04-12 19:38 | 52.70408 | -83.26876 | 2503 ft | 159 kts | 246° |
| 2026-04-12 19:38 | 52.69958 | -83.28539 | 2489 ft | 158 kts | 246° |
| 2026-04-12 19:38 | 52.69517 | -83.30173 | 2488 ft | 157 kts | 246° |
| 2026-04-12 19:38 | 52.69075 | -83.31811 | 2490 ft | 156 kts | 246° |
| 2026-04-12 19:39 | 52.68628 | -83.33463 | 2519 ft | 158 kts | 246° |
| 2026-04-12 19:39 | 52.68180 | -83.35133 | 2500 ft | 158 kts | 246° |
| 2026-04-12 19:39 | 52.67881 | -83.36233 | 2499 ft | 158 kts | 246° |
| 2026-04-12 19:39 | 52.67290 | -83.38423 | 2504 ft | 157 kts | 246° |
| 2026-04-12 19:40 | 52.66842 | -83.40079 | 2518 ft | 159 kts | 246° |
| 2026-04-12 19:40 | 52.66389 | -83.41755 | 2498 ft | 159 kts | 246° |
| 2026-04-12 19:40 | 52.65942 | -83.43407 | 2503 ft | 158 kts | 246° |
| 2026-04-12 19:40 | 52.65502 | -83.45050 | 2486 ft | 157 kts | 246° |
| 2026-04-12 19:41 | 52.65062 | -83.46697 | 2492 ft | 156 kts | 246° |
| 2026-04-12 19:41 | 52.64622 | -83.48331 | 2486 ft | 156 kts | 246° |
| 2026-04-12 19:41 | 52.64184 | -83.49963 | 2512 ft | 157 kts | 246° |
| 2026-04-12 19:41 | 52.63741 | -83.51610 | 2508 ft | 158 kts | 246° |
| 2026-04-12 19:42 | 52.63293 | -83.53277 | 2513 ft | 159 kts | 246° |
| 2026-04-12 19:42 | 52.62849 | -83.54932 | 2511 ft | 159 kts | 246° |
| 2026-04-12 19:42 | 52.62403 | -83.56602 | 2491 ft | 158 kts | 246° |
| 2026-04-12 19:43 | 52.61517 | -83.59904 | 2494 ft | 157 kts | 246° |
| 2026-04-12 19:43 | 52.61076 | -83.61551 | 2490 ft | 156 kts | 246° |
| 2026-04-12 19:43 | 52.60640 | -83.63178 | 2496 ft | 156 kts | 246° |
| 2026-04-12 19:43 | 52.60200 | -83.64820 | 2507 ft | 158 kts | 246° |
| 2026-04-12 19:44 | 52.59757 | -83.66479 | 2494 ft | 157 kts | 246° |
| 2026-04-12 19:44 | 52.59317 | -83.68126 | 2503 ft | 157 kts | 247° |
| 2026-04-12 19:44 | 52.58882 | -83.69759 | 2504 ft | 157 kts | 246° |
| 2026-04-12 19:44 | 52.58438 | -83.71417 | 2506 ft | 158 kts | 246° |
| 2026-04-12 19:45 | 52.58000 | -83.73052 | 2503 ft | 158 kts | 246° |
| 2026-04-12 19:45 | 52.57558 | -83.74717 | 2492 ft | 157 kts | 246° |
| 2026-04-12 19:45 | 52.57118 | -83.76370 | 2495 ft | 156 kts | 247° |
| 2026-04-12 19:45 | 52.56683 | -83.78011 | 2497 ft | 156 kts | 246° |
| 2026-04-12 19:46 | 52.56251 | -83.79633 | 2502 ft | 156 kts | 246° |
| 2026-04-12 19:46 | 52.55809 | -83.81285 | 2513 ft | 158 kts | 247° |
| 2026-04-12 19:46 | 52.55373 | -83.82926 | 2500 ft | 158 kts | 246° |
| 2026-04-12 19:46 | 52.54930 | -83.84583 | 2510 ft | 158 kts | 246° |
| 2026-04-12 19:47 | 52.54486 | -83.86251 | 2516 ft | 159 kts | 246° |
| 2026-04-12 19:47 | 52.54042 | -83.87929 | 2498 ft | 159 kts | 247° |
| 2026-04-12 19:47 | 52.53604 | -83.89582 | 2495 ft | 158 kts | 247° |
| 2026-04-12 19:47 | 52.53164 | -83.91236 | 2505 ft | 158 kts | 246° |
| 2026-04-12 19:48 | 52.52721 | -83.92909 | 2494 ft | 158 kts | 246° |
| 2026-04-12 19:48 | 52.52282 | -83.94557 | 2506 ft | 159 kts | 246° |
| 2026-04-12 19:48 | 52.51840 | -83.96225 | 2503 ft | 159 kts | 247° |
| 2026-04-12 19:48 | 52.51405 | -83.97870 | 2501 ft | 159 kts | 247° |
| 2026-04-12 19:49 | 52.50962 | -83.99543 | 2508 ft | 159 kts | 247° |
| 2026-04-12 19:49 | 52.50522 | -84.01205 | 2494 ft | 159 kts | 247° |
| 2026-04-12 19:49 | 52.50081 | -84.02873 | 2497 ft | 158 kts | 247° |
| 2026-04-12 19:49 | 52.49646 | -84.04523 | 2499 ft | 159 kts | 247° |
| 2026-04-12 19:50 | 52.49209 | -84.06185 | 2485 ft | 157 kts | 247° |
| 2026-04-12 19:50 | 52.48781 | -84.07818 | 2496 ft | 157 kts | 247° |
| 2026-04-12 19:50 | 52.48344 | -84.09483 | 2516 ft | 159 kts | 247° |
| 2026-04-12 19:50 | 52.47903 | -84.11153 | 2520 ft | 160 kts | 247° |
| 2026-04-12 19:51 | 52.47461 | -84.12830 | 2513 ft | 161 kts | 247° |
| 2026-04-12 19:51 | 52.47019 | -84.14509 | 2501 ft | 160 kts | 247° |
| 2026-04-12 19:51 | 52.46574 | -84.16204 | 2494 ft | 160 kts | 247° |
| 2026-04-12 19:51 | 52.46136 | -84.17872 | 2490 ft | 159 kts | 247° |
| 2026-04-12 19:52 | 52.45701 | -84.19525 | 2482 ft | 157 kts | 247° |
| 2026-04-12 19:52 | 52.45276 | -84.21159 | 2479 ft | 156 kts | 247° |
| 2026-04-12 19:52 | 52.44848 | -84.22782 | 2483 ft | 155 kts | 247° |
| 2026-04-12 19:52 | 52.44419 | -84.24415 | 2508 ft | 156 kts | 247° |
| 2026-04-12 19:53 | 52.43989 | -84.26050 | 2517 ft | 158 kts | 247° |
| 2026-04-12 19:53 | 52.43551 | -84.27711 | 2497 ft | 158 kts | 247° |
| 2026-04-12 19:53 | 52.43117 | -84.29366 | 2507 ft | 158 kts | 247° |
| 2026-04-12 19:53 | 52.42684 | -84.31031 | 2494 ft | 157 kts | 247° |
| 2026-04-12 19:54 | 52.42255 | -84.32675 | 2499 ft | 157 kts | 247° |
| 2026-04-12 19:54 | 52.41826 | -84.34317 | 2508 ft | 158 kts | 247° |
| 2026-04-12 19:54 | 52.41396 | -84.35973 | 2504 ft | 159 kts | 247° |
| 2026-04-12 19:54 | 52.40961 | -84.37647 | 2494 ft | 158 kts | 247° |
| 2026-04-12 19:55 | 52.40533 | -84.39290 | 2505 ft | 158 kts | 247° |
| 2026-04-12 19:55 | 52.40102 | -84.40944 | 2504 ft | 158 kts | 247° |
| 2026-04-12 19:55 | 52.39809 | -84.42066 | 2510 ft | 159 kts | 247° |
| 2026-04-12 19:55 | 52.39234 | -84.44277 | 2499 ft | 160 kts | 247° |
| 2026-04-12 19:56 | 52.38944 | -84.45394 | 2486 ft | 158 kts | 247° |
| 2026-04-12 19:56 | 52.38510 | -84.47056 | 2505 ft | 158 kts | 247° |
| 2026-04-12 19:56 | 52.38083 | -84.48711 | 2501 ft | 159 kts | 247° |
| 2026-04-12 19:56 | 52.37650 | -84.50380 | 2505 ft | 159 kts | 247° |
| 2026-04-12 19:57 | 52.37215 | -84.52062 | 2509 ft | 160 kts | 247° |
| 2026-04-12 19:57 | 52.36786 | -84.53722 | 2500 ft | 160 kts | 248° |
| 2026-04-12 19:57 | 52.36352 | -84.55400 | 2483 ft | 158 kts | 247° |
| 2026-04-12 19:57 | 52.35926 | -84.57041 | 2487 ft | 157 kts | 247° |
| 2026-04-12 19:58 | 52.35495 | -84.58704 | 2497 ft | 157 kts | 247° |
| 2026-04-12 19:58 | 52.35072 | -84.60341 | 2498 ft | 157 kts | 247° |
| 2026-04-12 19:58 | 52.34644 | -84.61997 | 2493 ft | 157 kts | 247° |
| 2026-04-12 19:58 | 52.34217 | -84.63650 | 2513 ft | 158 kts | 247° |
| 2026-04-12 19:59 | 52.33787 | -84.65315 | 2519 ft | 160 kts | 247° |
| 2026-04-12 19:59 | 52.33360 | -84.66969 | 2491 ft | 159 kts | 247° |
| 2026-04-12 19:59 | 52.32931 | -84.68637 | 2501 ft | 158 kts | 247° |
| 2026-04-12 19:59 | 52.32509 | -84.70292 | 2519 ft | 159 kts | 248° |
| 2026-04-12 20:00 | 52.32079 | -84.71958 | 2492 ft | 159 kts | 247° |
| 2026-04-12 20:00 | 52.31643 | -84.73635 | 2506 ft | 159 kts | 247° |
| 2026-04-12 20:00 | 52.31218 | -84.75278 | 2493 ft | 158 kts | 247° |
| 2026-04-12 20:00 | 52.30788 | -84.76945 | 2495 ft | 157 kts | 248° |
| 2026-04-12 20:01 | 52.30366 | -84.78591 | 2510 ft | 158 kts | 248° |
| 2026-04-12 20:01 | 52.29938 | -84.80262 | 2506 ft | 159 kts | 247° |
| 2026-04-12 20:01 | 52.29515 | -84.81917 | 2492 ft | 158 kts | 248° |
| 2026-04-12 20:01 | 52.29095 | -84.83563 | 2491 ft | 157 kts | 247° |
| 2026-04-12 20:02 | 52.28671 | -84.85216 | 2506 ft | 158 kts | 248° |
| 2026-04-12 20:02 | 52.28249 | -84.86868 | 2501 ft | 158 kts | 247° |
| 2026-04-12 20:02 | 52.27823 | -84.88526 | 2497 ft | 158 kts | 248° |
| 2026-04-12 20:02 | 52.27401 | -84.90191 | 2493 ft | 157 kts | 248° |
| 2026-04-12 20:03 | 52.26978 | -84.91844 | 2502 ft | 157 kts | 248° |
| 2026-04-12 20:03 | 52.26560 | -84.93490 | 2499 ft | 158 kts | 248° |
| 2026-04-12 20:03 | 52.26140 | -84.95138 | 2509 ft | 158 kts | 248° |
| 2026-04-12 20:03 | 52.25713 | -84.96809 | 2493 ft | 158 kts | 248° |
| 2026-04-12 20:04 | 52.25297 | -84.98446 | 2506 ft | 158 kts | 248° |
| 2026-04-12 20:04 | 52.24873 | -85.00114 | 2492 ft | 158 kts | 248° |
| 2026-04-12 20:04 | 52.24451 | -85.01768 | 2500 ft | 158 kts | 248° |
| 2026-04-12 20:04 | 52.24035 | -85.03413 | 2501 ft | 157 kts | 248° |
| 2026-04-12 20:05 | 52.23613 | -85.05075 | 2505 ft | 158 kts | 248° |
| 2026-04-12 20:05 | 52.23193 | -85.06722 | 2490 ft | 157 kts | 248° |
| 2026-04-12 20:05 | 52.22772 | -85.08366 | 2496 ft | 157 kts | 248° |
| 2026-04-12 20:05 | 52.22357 | -85.10006 | 2489 ft | 156 kts | 248° |
| 2026-04-12 20:06 | 52.21943 | -85.11645 | 2490 ft | 155 kts | 248° |
| 2026-04-12 20:06 | 52.21530 | -85.13274 | 2504 ft | 156 kts | 248° |
| 2026-04-12 20:06 | 52.21114 | -85.14922 | 2509 ft | 157 kts | 248° |
| 2026-04-12 20:06 | 52.20699 | -85.16566 | 2506 ft | 158 kts | 248° |
| 2026-04-12 20:07 | 52.20277 | -85.18231 | 2510 ft | 158 kts | 248° |
| 2026-04-12 20:07 | 52.19864 | -85.19865 | 2505 ft | 158 kts | 248° |
| 2026-04-12 20:07 | 52.19446 | -85.21524 | 2511 ft | 159 kts | 248° |
| 2026-04-12 20:07 | 52.19027 | -85.23192 | 2501 ft | 159 kts | 248° |
| 2026-04-12 20:08 | 52.18609 | -85.24855 | 2497 ft | 158 kts | 248° |
| 2026-04-12 20:08 | 52.18192 | -85.26508 | 2500 ft | 158 kts | 248° |
| 2026-04-12 20:08 | 52.17776 | -85.28168 | 2503 ft | 159 kts | 248° |
| 2026-04-12 20:08 | 52.17355 | -85.29835 | 2510 ft | 159 kts | 248° |
| 2026-04-12 20:09 | 52.16936 | -85.31503 | 2495 ft | 159 kts | 248° |
| 2026-04-12 20:09 | 52.16523 | -85.33139 | 2495 ft | 158 kts | 248° |
| 2026-04-12 20:09 | 52.16108 | -85.34796 | 2507 ft | 159 kts | 248° |
| 2026-04-12 20:09 | 52.15691 | -85.36465 | 2497 ft | 159 kts | 248° |
| 2026-04-12 20:10 | 52.15272 | -85.38125 | 2489 ft | 158 kts | 248° |
| 2026-04-12 20:10 | 52.14857 | -85.39781 | 2500 ft | 158 kts | 248° |
| 2026-04-12 20:10 | 52.14442 | -85.41444 | 2507 ft | 159 kts | 248° |
| 2026-04-12 20:10 | 52.14026 | -85.43109 | 2491 ft | 158 kts | 248° |
| 2026-04-12 20:11 | 52.13609 | -85.44772 | 2498 ft | 159 kts | 248° |
| 2026-04-12 20:11 | 52.13192 | -85.46435 | 2507 ft | 159 kts | 248° |
| 2026-04-12 20:11 | 52.12782 | -85.48079 | 2499 ft | 158 kts | 248° |
| 2026-04-12 20:11 | 52.12369 | -85.49743 | 2500 ft | 159 kts | 248° |
| 2026-04-12 20:12 | 52.11953 | -85.51411 | 2516 ft | 160 kts | 248° |
| 2026-04-12 20:12 | 52.11537 | -85.53086 | 2500 ft | 159 kts | 248° |
| 2026-04-12 20:12 | 52.11122 | -85.54760 | 2490 ft | 159 kts | 248° |
| 2026-04-12 20:12 | 52.10711 | -85.56416 | 2489 ft | 157 kts | 248° |
| 2026-04-12 20:13 | 52.10298 | -85.58070 | 2501 ft | 158 kts | 248° |
| 2026-04-12 20:13 | 52.09887 | -85.59725 | 2488 ft | 157 kts | 248° |
| 2026-04-12 20:13 | 52.09071 | -85.63021 | 2498 ft | 159 kts | 248° |
| 2026-04-12 20:14 | 52.08661 | -85.64682 | 2493 ft | 158 kts | 248° |
| 2026-04-12 20:14 | 52.08248 | -85.66344 | 2505 ft | 159 kts | 248° |
| 2026-04-12 20:14 | 52.07838 | -85.67999 | 2501 ft | 158 kts | 249° |
| 2026-04-12 20:14 | 52.07425 | -85.69667 | 2501 ft | 159 kts | 248° |
| 2026-04-12 20:15 | 52.07010 | -85.71329 | 2493 ft | 158 kts | 248° |
| 2026-04-12 20:15 | 52.06602 | -85.72982 | 2492 ft | 157 kts | 248° |
| 2026-04-12 20:15 | 52.06198 | -85.74635 | 2497 ft | 157 kts | 249° |
| 2026-04-12 20:15 | 52.05798 | -85.76259 | 2500 ft | 157 kts | 248° |
| 2026-04-12 20:16 | 52.05388 | -85.77909 | 2491 ft | 157 kts | 248° |
| 2026-04-12 20:16 | 52.04981 | -85.79553 | 2512 ft | 158 kts | 248° |
| 2026-04-12 20:16 | 52.04573 | -85.81214 | 2521 ft | 160 kts | 249° |
| 2026-04-12 20:16 | 52.04159 | -85.82896 | 2511 ft | 161 kts | 249° |
| 2026-04-12 20:17 | 52.03747 | -85.84576 | 2489 ft | 159 kts | 248° |
| 2026-04-12 20:17 | 52.03338 | -85.86237 | 2481 ft | 157 kts | 248° |
| 2026-04-12 20:17 | 52.02939 | -85.87859 | 2487 ft | 156 kts | 249° |
| 2026-04-12 20:17 | 52.02538 | -85.89495 | 2489 ft | 156 kts | 249° |
| 2026-04-12 20:18 | 52.02137 | -85.91131 | 2492 ft | 156 kts | 249° |
| 2026-04-12 20:18 | 52.01737 | -85.92763 | 2496 ft | 156 kts | 249° |
| 2026-04-12 20:18 | 52.01333 | -85.94407 | 2531 ft | 159 kts | 248° |
| 2026-04-12 20:18 | 52.00924 | -85.96079 | 2507 ft | 159 kts | 249° |
| 2026-04-12 20:19 | 52.00516 | -85.97747 | 2512 ft | 159 kts | 249° |
| 2026-04-12 20:19 | 52.00107 | -85.99425 | 2518 ft | 161 kts | 249° |
| 2026-04-12 20:19 | 51.99698 | -86.01112 | 2503 ft | 161 kts | 249° |
| 2026-04-12 20:19 | 51.99289 | -86.02785 | 2500 ft | 159 kts | 249° |
| 2026-04-12 20:20 | 51.98885 | -86.04430 | 2499 ft | 159 kts | 248° |
| 2026-04-12 20:20 | 51.98476 | -86.06099 | 2495 ft | 159 kts | 249° |
| 2026-04-12 20:20 | 51.98069 | -86.07769 | 2506 ft | 160 kts | 249° |
| 2026-04-12 20:20 | 51.97664 | -86.09442 | 2485 ft | 158 kts | 249° |
| 2026-04-12 20:21 | 51.97264 | -86.11095 | 2485 ft | 157 kts | 249° |
| 2026-04-12 20:21 | 51.96865 | -86.12737 | 2486 ft | 156 kts | 249° |
| 2026-04-12 20:21 | 51.96467 | -86.14373 | 2491 ft | 156 kts | 249° |
| 2026-04-12 20:21 | 51.96068 | -86.16008 | 2492 ft | 156 kts | 249° |
| 2026-04-12 20:22 | 51.95670 | -86.17645 | 2518 ft | 157 kts | 249° |
| 2026-04-12 20:22 | 51.95233 | -86.19245 | 2504 ft | 158 kts | 245° |
| 2026-04-12 20:22 | 51.94749 | -86.20838 | 2502 ft | 157 kts | 243° |
| 2026-04-12 20:22 | 51.94255 | -86.22420 | 2496 ft | 157 kts | 243° |
| 2026-04-12 20:23 | 51.93755 | -86.23996 | 2512 ft | 158 kts | 243° |
| 2026-04-12 20:23 | 51.93245 | -86.25576 | 2504 ft | 158 kts | 243° |
| 2026-04-12 20:23 | 51.92738 | -86.27155 | 2491 ft | 157 kts | 243° |
| 2026-04-12 20:23 | 51.92236 | -86.28724 | 2504 ft | 157 kts | 243° |
| 2026-04-12 20:24 | 51.91731 | -86.30303 | 2497 ft | 158 kts | 243° |
| 2026-04-12 20:24 | 51.91228 | -86.31880 | 2492 ft | 157 kts | 243° |
| 2026-04-12 20:24 | 51.90734 | -86.33426 | 2506 ft | 157 kts | 243° |
| 2026-04-12 20:24 | 51.90229 | -86.35003 | 2499 ft | 158 kts | 243° |
| 2026-04-12 20:25 | 51.89726 | -86.36578 | 2495 ft | 157 kts | 243° |
| 2026-04-12 20:25 | 51.89225 | -86.38149 | 2493 ft | 157 kts | 243° |
| 2026-04-12 20:25 | 51.88725 | -86.39714 | 2495 ft | 156 kts | 243° |
| 2026-04-12 20:25 | 51.88224 | -86.41273 | 2497 ft | 156 kts | 243° |
| 2026-04-12 20:26 | 51.87726 | -86.42836 | 2493 ft | 156 kts | 243° |
| 2026-04-12 20:26 | 51.87234 | -86.44379 | 2519 ft | 158 kts | 243° |
| 2026-04-12 20:26 | 51.86731 | -86.45962 | 2512 ft | 159 kts | 243° |
| 2026-04-12 20:26 | 51.86228 | -86.47544 | 2494 ft | 158 kts | 243° |
| 2026-04-12 20:27 | 51.85728 | -86.49119 | 2505 ft | 157 kts | 243° |
| 2026-04-12 20:27 | 51.85226 | -86.50701 | 2513 ft | 159 kts | 243° |
| 2026-04-12 20:27 | 51.84718 | -86.52294 | 2501 ft | 159 kts | 243° |
| 2026-04-12 20:27 | 51.84215 | -86.53878 | 2488 ft | 158 kts | 243° |
| 2026-04-12 20:28 | 51.83717 | -86.55448 | 2488 ft | 157 kts | 243° |
| 2026-04-12 20:28 | 51.83219 | -86.57014 | 2511 ft | 157 kts | 243° |
| 2026-04-12 20:28 | 51.82726 | -86.58573 | 2498 ft | 158 kts | 243° |
| 2026-04-12 20:28 | 51.82227 | -86.60145 | 2496 ft | 157 kts | 243° |
| 2026-04-12 20:29 | 51.81731 | -86.61713 | 2492 ft | 156 kts | 243° |
| 2026-04-12 20:29 | 51.81234 | -86.63276 | 2512 ft | 157 kts | 243° |
| 2026-04-12 20:29 | 51.80737 | -86.64854 | 2499 ft | 157 kts | 243° |
| 2026-04-12 20:29 | 51.80238 | -86.66430 | 2509 ft | 158 kts | 243° |
| 2026-04-12 20:30 | 51.79739 | -86.68011 | 2504 ft | 158 kts | 243° |
| 2026-04-12 20:30 | 51.79247 | -86.69568 | 2501 ft | 158 kts | 243° |
| 2026-04-12 20:30 | 51.78749 | -86.71143 | 2493 ft | 157 kts | 243° |
| 2026-04-12 20:30 | 51.78253 | -86.72715 | 2500 ft | 157 kts | 243° |
| 2026-04-12 20:31 | 51.77758 | -86.74285 | 2494 ft | 157 kts | 243° |
| 2026-04-12 20:31 | 51.77267 | -86.75849 | 2493 ft | 156 kts | 243° |
| 2026-04-12 20:31 | 51.76773 | -86.77412 | 2498 ft | 156 kts | 243° |
| 2026-04-12 20:31 | 51.76281 | -86.78973 | 2496 ft | 156 kts | 243° |
| 2026-04-12 20:32 | 51.75790 | -86.80531 | 2497 ft | 156 kts | 243° |
| 2026-04-12 20:32 | 51.75298 | -86.82092 | 2503 ft | 156 kts | 243° |
| 2026-04-12 20:32 | 51.74812 | -86.83635 | 2502 ft | 156 kts | 243° |
| 2026-04-12 20:32 | 51.74321 | -86.85201 | 2510 ft | 157 kts | 243° |
| 2026-04-12 20:33 | 51.73827 | -86.86772 | 2504 ft | 157 kts | 243° |
| 2026-04-12 20:33 | 51.73328 | -86.88349 | 2511 ft | 158 kts | 243° |
| 2026-04-12 20:33 | 51.72833 | -86.89932 | 2496 ft | 158 kts | 243° |
| 2026-04-12 20:33 | 51.72338 | -86.91508 | 2514 ft | 158 kts | 243° |
| 2026-04-12 20:34 | 51.71841 | -86.93095 | 2499 ft | 158 kts | 243° |
| 2026-04-12 20:34 | 51.71347 | -86.94674 | 2492 ft | 157 kts | 243° |
| 2026-04-12 20:34 | 51.70859 | -86.96233 | 2493 ft | 157 kts | 243° |
| 2026-04-12 20:34 | 51.70380 | -86.97765 | 2492 ft | 156 kts | 243° |
| 2026-04-12 20:35 | 51.69892 | -86.99329 | 2495 ft | 156 kts | 244° |
| 2026-04-12 20:35 | 51.69406 | -87.00879 | 2497 ft | 156 kts | 243° |
| 2026-04-12 20:35 | 51.68913 | -87.02451 | 2498 ft | 156 kts | 244° |
| 2026-04-12 20:35 | 51.68430 | -87.04001 | 2500 ft | 156 kts | 244° |
| 2026-04-12 20:36 | 51.67943 | -87.05562 | 2498 ft | 156 kts | 244° |
| 2026-04-12 20:36 | 51.67457 | -87.07126 | 2500 ft | 156 kts | 244° |
| 2026-04-12 20:36 | 51.66965 | -87.08703 | 2503 ft | 157 kts | 244° |
| 2026-04-12 20:36 | 51.66478 | -87.10263 | 2497 ft | 156 kts | 244° |
| 2026-04-12 20:37 | 51.65990 | -87.11826 | 2504 ft | 156 kts | 243° |
| 2026-04-12 20:37 | 51.65497 | -87.13400 | 2510 ft | 157 kts | 244° |
| 2026-04-12 20:37 | 51.65011 | -87.14965 | 2507 ft | 158 kts | 244° |
| 2026-04-12 20:37 | 51.64515 | -87.16561 | 2497 ft | 157 kts | 244° |
| 2026-04-12 20:38 | 51.64032 | -87.18119 | 2493 ft | 157 kts | 244° |
| 2026-04-12 20:38 | 51.63546 | -87.19684 | 2501 ft | 157 kts | 244° |
| 2026-04-12 20:38 | 51.63061 | -87.21248 | 2506 ft | 157 kts | 244° |
| 2026-04-12 20:38 | 51.62570 | -87.22826 | 2497 ft | 157 kts | 244° |
| 2026-04-12 20:39 | 51.62078 | -87.24402 | 2495 ft | 156 kts | 244° |
| 2026-04-12 20:39 | 51.61590 | -87.25969 | 2500 ft | 156 kts | 244° |
| 2026-04-12 20:39 | 51.61111 | -87.27515 | 2497 ft | 156 kts | 244° |
| 2026-04-12 20:39 | 51.60627 | -87.29081 | 2498 ft | 156 kts | 244° |
| 2026-04-12 20:40 | 51.60143 | -87.30648 | 2497 ft | 156 kts | 244° |
| 2026-04-12 20:40 | 51.59655 | -87.32217 | 2507 ft | 157 kts | 244° |
| 2026-04-12 20:40 | 51.59169 | -87.33790 | 2501 ft | 157 kts | 244° |
| 2026-04-12 20:40 | 51.58696 | -87.35360 | 2496 ft | 156 kts | 244° |
| 2026-04-12 20:41 | 51.58278 | -87.36957 | 2495 ft | 155 kts | 253° |
| 2026-04-12 20:41 | 51.58052 | -87.38672 | 2498 ft | 155 kts | 261° |
| 2026-04-12 20:41 | 51.57912 | -87.40387 | 2502 ft | 156 kts | 263° |
| 2026-04-12 20:41 | 51.57797 | -87.42132 | 2513 ft | 157 kts | 264° |
| 2026-04-12 20:42 | 51.57694 | -87.43869 | 2511 ft | 157 kts | 264° |
| 2026-04-12 20:42 | 51.57594 | -87.45627 | 2498 ft | 157 kts | 265° |
| 2026-04-12 20:42 | 51.57495 | -87.47375 | 2495 ft | 156 kts | 265° |
| 2026-04-12 20:42 | 51.57398 | -87.49107 | 2494 ft | 156 kts | 265° |
| 2026-04-12 20:43 | 51.57303 | -87.50852 | 2501 ft | 156 kts | 265° |
| 2026-04-12 20:43 | 51.57209 | -87.52583 | 2500 ft | 156 kts | 265° |
| 2026-04-12 20:43 | 51.57115 | -87.54334 | 2501 ft | 156 kts | 265° |
| 2026-04-12 20:43 | 51.57019 | -87.56081 | 2507 ft | 157 kts | 265° |
| 2026-04-12 20:44 | 51.56926 | -87.57824 | 2499 ft | 157 kts | 265° |
| 2026-04-12 20:44 | 51.56847 | -87.59538 | 2483 ft | 152 kts | 266° |
| 2026-04-12 20:44 | 51.56748 | -87.61222 | 2420 ft | 151 kts | 264° |
| 2026-04-12 20:44 | 51.56669 | -87.62904 | 2378 ft | 149 kts | 266° |
| 2026-04-12 20:45 | 51.56662 | -87.64557 | 2432 ft | 144 kts | 267° |
| 2026-04-12 20:45 | 51.56589 | -87.66038 | 2731 ft | 127 kts | 264° |
| 2026-04-12 20:45 | 51.56574 | -87.67505 | 2796 ft | 133 kts | 276° |
| 2026-04-12 20:45 | 51.56717 | -87.69017 | 2733 ft | 140 kts | 281° |
| 2026-04-12 20:46 | 51.56880 | -87.70566 | 2654 ft | 143 kts | 277° |
| 2026-04-12 20:46 | 51.56972 | -87.72159 | 2534 ft | 137 kts | 274° |
| 2026-04-12 20:46 | 51.57050 | -87.73653 | 2333 ft | 133 kts | 274° |
| 2026-04-12 20:46 | 51.57091 | -87.75131 | 2132 ft | 129 kts | 273° |
| 2026-04-12 20:47 | 51.57162 | -87.76550 | 1975 ft | 126 kts | 273° |
| 2026-04-12 20:47 | 51.57212 | -87.77922 | 1954 ft | 120 kts | 274° |
| 2026-04-12 20:47 | 51.57200 | -87.79245 | 1851 ft | 121 kts | 255° |
| 2026-04-12 20:47 | 51.56935 | -87.80537 | 1780 ft | 119 kts | 254° |
| 2026-04-12 20:48 | 51.56732 | -87.81711 | 2027 ft | 104 kts | 256° |
| 2026-04-12 20:48 | 51.56641 | -87.82925 | 1997 ft | 113 kts | 264° |
| 2026-04-12 20:48 | 51.56542 | -87.84145 | 1777 ft | 109 kts | 261° |
| 2026-04-12 20:48 | 51.56471 | -87.85352 | 1671 ft | 107 kts | 266° |
| 2026-04-12 20:49 | 51.56439 | -87.86563 | 1529 ft | 108 kts | 268° |
| 2026-04-12 20:49 | 51.56391 | -87.87720 | 1394 ft | 97 kts | 265° |
| 2026-04-12 20:49 | 51.56321 | -87.88802 | 1176 ft | 97 kts | 263° |
| 2026-04-12 20:49 | 51.56254 | -87.89855 | 973 ft | 87 kts | 265° |
| 2026-04-12 20:50 | 51.56202 | -87.90695 | 887 ft | 64 kts | 263° |
| 2026-04-12 20:50 | 51.56182 | -87.91009 | 887 ft | 0 kts | 265° |
| 2026-04-12 20:50 | 51.56171 | -87.90948 | 886 ft | 17 kts | 81° |
| 2026-04-12 20:50 | 51.56204 | -87.90700 | 887 ft | 26 kts | 84° |
| 2026-04-12 20:51 | 51.56217 | -87.90489 | 890 ft | 28 kts | 90° |
| 2026-04-12 20:51 | 51.56223 | -87.90245 | 896 ft | 10 kts | 86° |
| 2026-04-12 20:51 | 51.56211 | -87.90124 | 903 ft | 9 kts | 152° |
| 2026-04-12 20:51 | 51.56118 | -87.90092 | 901 ft | 10 kts | 188° |
| 2026-04-12 20:52 | 51.56090 | -87.90159 | 898 ft | 0 kts | 274° |